Time;durP1;ratioP1;P1;durP2;ratioP2;P2;SDS_P1;SDS_P2;PMS_P1;PMS_P2;Temp;Humidity;BMP_temperature;BMP_pressure;BME280_temperature;BME280_humidity;BME280_pressure;Samples;Min_cycle;Max_cycle;Signal;HPM_P1;HPM_P2
2022/03/05 00:01:18;;;;;;;24.33;19.30;;;;;;;-0.07;65.84;92530.19;5084921;28;20207;-80
2022/03/05 00:03:43;;;;;;;23.87;20.90;;;;;;;-0.20;66.24;92542.38;5078589;28;20220;-79
2022/03/05 00:06:09;;;;;;;23.37;18.83;;;;;;;-0.39;66.70;92539.03;5080399;28;20195;-80
2022/03/05 00:08:35;;;;;;;22.20;19.83;;;;;;;-0.24;66.34;92506.13;5083635;28;20233;-79
2022/03/05 00:11:00;;;;;;;23.30;19.10;;;;;;;-0.34;65.91;92503.28;5087582;28;20190;-79
2022/03/05 00:13:26;;;;;;;20.67;18.57;;;;;;;-0.62;67.40;92517.59;5084321;28;20305;-84
2022/03/05 00:15:52;;;;;;;25.30;19.13;;;;;;;-0.52;67.24;92538.41;5087501;28;20203;-83
2022/03/05 00:18:17;;;;;;;23.90;19.20;;;;;;;-0.73;67.64;92526.03;5080913;28;20256;-83
2022/03/05 00:20:45;;;;;;;21.23;19.17;;;;;;;-0.73;68.08;92526.03;5086810;28;20262;-80
2022/03/05 00:23:11;;;;;;;25.90;20.53;;;;;;;-0.85;68.80;92525.94;5087199;28;20288;-82
2022/03/05 00:25:37;;;;;;;27.67;19.17;;;;;;;-0.99;68.96;92521.13;5099828;28;20287;-83
2022/03/05 00:28:03;;;;;;;22.60;18.50;;;;;;;-0.91;68.46;92513.97;5088502;28;20250;-83
2022/03/05 00:30:28;;;;;;;21.70;19.07;;;;;;;-0.79;67.71;92508.91;5086555;28;20196;-83
2022/03/05 00:32:53;;;;;;;22.40;19.27;;;;;;;-1.04;68.85;92518.44;5086840;28;20240;-82
2022/03/05 00:35:19;;;;;;;22.43;20.07;;;;;;;-0.90;68.74;92520.66;5085473;28;20189;-83
2022/03/05 00:37:45;;;;;;;23.37;19.57;;;;;;;-0.55;67.94;92529.38;5085288;28;20224;-83
2022/03/05 00:40:11;;;;;;;22.10;19.60;;;;;;;-0.71;68.24;92535.06;5092235;28;20201;-82
2022/03/05 00:42:37;;;;;;;22.90;19.77;;;;;;;-0.60;66.80;92495.09;5088031;28;20355;-82
2022/03/05 00:45:05;;;;;;;22.03;19.73;;;;;;;-0.76;67.63;92496.47;5087771;28;20195;-83
2022/03/05 00:47:31;;;;;;;22.20;19.90;;;;;;;-0.60;68.29;92531.00;5090568;28;20252;-82
2022/03/05 00:49:57;;;;;;;22.00;19.57;;;;;;;-0.86;67.34;92505.66;5088021;28;20189;-82
2022/03/05 00:52:22;;;;;;;23.17;19.60;;;;;;;-0.54;66.92;92519.88;5090229;28;20287;-83
2022/03/05 00:54:48;;;;;;;24.13;20.23;;;;;;;-0.33;67.22;92537.41;5089925;28;20191;-83
2022/03/05 00:57:14;;;;;;;21.93;18.73;;;;;;;-0.47;67.33;92510.34;5089286;28;20227;-82
2022/03/05 00:59:40;;;;;;;22.30;19.20;;;;;;;-0.17;66.55;92534.25;5090085;28;20226;-83
2022/03/05 01:02:06;;;;;;;22.97;20.57;;;;;;;-0.36;66.79;92533.47;5088065;28;20227;-82
2022/03/05 01:04:32;;;;;;;23.90;19.23;;;;;;;-0.28;67.12;92530.63;5090363;28;20192;-83
2022/03/05 01:06:57;;;;;;;23.03;19.73;;;;;;;-0.42;67.43;92521.50;5088035;28;20207;-82
2022/03/05 01:09:22;;;;;;;24.73;20.40;;;;;;;-0.37;66.99;92526.78;5090338;28;20197;-83
2022/03/05 01:11:48;;;;;;;21.43;19.00;;;;;;;-0.32;67.68;92519.25;5090489;28;20193;-82
2022/03/05 01:14:13;;;;;;;24.57;20.10;;;;;;;-0.38;67.60;92516.75;5087091;28;20224;-82
2022/03/05 01:16:39;;;;;;;21.47;19.10;;;;;;;-0.34;67.69;92513.53;5091710;28;20258;-82
2022/03/05 01:19:04;;;;;;;21.50;19.30;;;;;;;-0.24;67.26;92489.94;5089530;28;20220;-81
2022/03/05 01:21:30;;;;;;;24.77;20.57;;;;;;;0.17;66.20;92481.50;5105836;28;20219;-82
2022/03/05 01:23:56;;;;;;;21.20;18.80;;;;;;;0.15;65.74;92484.31;5090371;28;20295;-83
2022/03/05 01:26:22;;;;;;;21.57;19.00;;;;;;;0.31;65.99;92508.56;5087801;28;20260;-83
2022/03/05 01:28:47;;;;;;;21.40;19.20;;;;;;;0.15;66.48;92478.38;5090061;28;20233;-84
2022/03/05 01:31:14;;;;;;;25.23;19.97;;;;;;;-0.02;66.94;92493.63;5089028;28;20200;-82
2022/03/05 01:33:40;;;;;;;24.70;19.80;;;;;;;0.14;66.59;92492.97;5089610;28;20224;-82
2022/03/05 01:36:05;;;;;;;26.10;19.23;;;;;;;0.11;66.24;92498.56;5090179;28;20642;-81
2022/03/05 01:38:31;;;;;;;21.93;19.63;;;;;;;0.41;65.76;92499.31;5085727;28;20224;-82
2022/03/05 01:40:56;;;;;;;23.50;20.07;;;;;;;0.15;65.80;92492.00;5088903;28;20196;-82
2022/03/05 01:43:22;;;;;;;31.37;21.50;;;;;;;-0.02;66.50;92483.34;5089273;28;20311;-82
2022/03/05 01:45:47;;;;;;;43.80;26.67;;;;;;;0.25;66.47;92510.19;5087953;28;20227;-83
2022/03/05 01:48:13;;;;;;;36.03;24.07;;;;;;;0.33;66.20;92491.16;5087312;28;20242;-81
2022/03/05 01:50:38;;;;;;;26.70;20.23;;;;;;;0.52;65.55;92495.22;5088152;28;20180;-82
2022/03/05 01:53:04;;;;;;;22.20;19.97;;;;;;;0.55;66.12;92492.19;5088555;28;20243;-84
2022/03/05 01:55:31;;;;;;;22.87;19.33;;;;;;;0.31;66.39;92499.09;5089399;28;20710;-82
2022/03/05 01:57:56;;;;;;;22.57;19.67;;;;;;;0.68;65.92;92497.13;5083515;28;20287;-80
2022/03/05 02:00:22;;;;;;;22.20;19.00;;;;;;;0.64;65.77;92489.09;5089233;28;20188;-82
2022/03/05 02:02:47;;;;;;;26.07;19.97;;;;;;;0.69;65.56;92473.78;5086920;28;20212;-82
2022/03/05 02:05:14;;;;;;;24.40;20.87;;;;;;;0.92;65.16;92494.34;5104732;28;20180;-82
2022/03/05 02:07:39;;;;;;;22.50;20.07;;;;;;;0.84;65.58;92486.22;5087182;28;20229;-82
2022/03/05 02:10:08;;;;;;;22.77;20.20;;;;;;;0.94;66.11;92501.84;5086917;28;20193;-82
2022/03/05 02:12:36;;;;;;;22.77;19.97;;;;;;;0.91;67.14;92495.38;5090097;28;20217;-82
2022/03/05 02:15:03;;;;;;;21.43;19.13;;;;;;;1.00;66.69;92501.75;5084461;28;20193;-82
2022/03/05 02:17:29;;;;;;;27.43;20.80;;;;;;;1.07;66.23;92505.00;5104941;28;20224;-82
2022/03/05 02:19:55;;;;;;;25.33;20.10;;;;;;;1.17;65.42;92494.13;5088313;28;20199;-83
2022/03/05 02:22:22;;;;;;;21.87;19.60;;;;;;;0.89;66.14;92494.81;5087227;28;20221;-84
2022/03/05 02:24:55;;;;;;;22.87;20.47;;;;;;;0.57;66.57;92452.47;5088994;28;20200;-83
2022/03/05 02:27:21;;;;;;;27.63;19.93;;;;;;;0.83;66.55;92482.06;5101104;28;20232;-83
2022/03/05 02:29:47;;;;;;;25.47;20.53;;;;;;;0.99;66.23;92496.81;5087796;28;20272;-81
2022/03/05 02:32:13;;;;;;;22.90;18.87;;;;;;;1.16;65.75;92497.72;5089782;28;20232;-83
2022/03/05 02:34:38;;;;;;;24.40;18.87;;;;;;;0.96;66.02;92477.50;5084804;28;20180;-82
2022/03/05 02:37:04;;;;;;;22.77;20.33;;;;;;;1.16;66.40;92495.94;5105565;28;20188;-83
2022/03/05 02:39:29;;;;;;;22.73;20.13;;;;;;;1.27;65.91;92499.50;5089175;28;20192;-83
2022/03/05 02:41:55;;;;;;;22.77;20.40;;;;;;;1.11;66.10;92482.97;5086911;28;20192;-85
2022/03/05 02:44:23;;;;;;;24.40;20.73;;;;;;;1.20;66.27;92498.81;5090539;28;20203;-83
2022/03/05 02:46:49;;;;;;;23.10;20.00;;;;;;;1.16;66.53;92497.72;5085574;28;20197;-82
2022/03/05 02:49:15;;;;;;;24.97;21.13;;;;;;;1.13;67.61;92498.94;5083895;28;20213;-84
2022/03/05 02:51:41;;;;;;;26.27;20.47;;;;;;;1.24;67.42;92499.94;5088964;28;20257;-81
2022/03/05 02:54:06;;;;;;;27.37;20.13;;;;;;;1.28;66.86;92506.97;5088276;28;20373;-83
2022/03/05 02:56:32;;;;;;;22.80;19.20;;;;;;;1.02;66.49;92474.03;5089937;28;20192;-83
2022/03/05 02:58:57;;;;;;;22.67;18.47;;;;;;;1.22;65.71;92486.53;5084955;28;20224;-84
2022/03/05 03:01:24;;;;;;;21.37;18.87;;;;;;;0.57;67.33;92461.94;5088334;28;20193;-83
2022/03/05 03:03:50;;;;;;;22.93;20.07;;;;;;;0.69;67.29;92471.22;5086614;28;20217;-83
2022/03/05 03:06:15;;;;;;;27.70;20.10;;;;;;;0.88;67.13;92500.97;5085400;28;20234;-83
2022/03/05 03:08:41;;;;;;;21.73;19.53;;;;;;;0.94;66.95;92494.13;5087228;28;20248;-87
2022/03/05 03:11:06;;;;;;;24.37;19.87;;;;;;;0.75;67.30;92454.91;5085785;28;20192;-84
2022/03/05 03:13:32;;;;;;;28.90;21.63;;;;;;;1.00;66.96;92483.75;5101925;28;20221;-83
2022/03/05 03:15:57;;;;;;;22.63;20.20;;;;;;;0.91;67.61;92469.69;5086060;28;20183;-82
2022/03/05 03:18:22;;;;;;;22.20;19.80;;;;;;;0.98;68.53;92490.13;5102147;28;20228;-82
2022/03/05 03:20:48;;;;;;;22.43;18.83;;;;;;;0.86;68.63;92467.00;5089008;28;20181;-83
2022/03/05 03:23:13;;;;;;;22.90;19.17;;;;;;;0.80;68.68;92467.88;5082902;28;20244;-83
2022/03/05 03:25:39;;;;;;;24.33;20.23;;;;;;;0.63;69.99;92461.84;5089040;28;20204;-83
2022/03/05 03:28:05;;;;;;;21.87;19.70;;;;;;;0.66;69.85;92460.59;5086237;28;20225;-83
2022/03/05 03:30:31;;;;;;;20.70;18.63;;;;;;;0.77;69.99;92496.59;5101379;28;20205;-83
2022/03/05 03:32:57;;;;;;;22.50;18.57;;;;;;;0.79;70.16;92499.72;5087197;28;20240;-82
2022/03/05 03:35:22;;;;;;;21.67;19.37;;;;;;;0.78;70.66;92505.84;5081915;28;20212;-83
2022/03/05 03:37:48;;;;;;;22.10;19.80;;;;;;;0.79;69.37;92499.72;5103196;28;20227;-83
2022/03/05 03:40:15;;;;;;;22.37;20.07;;;;;;;0.88;68.08;92508.66;5085298;28;20188;-83
2022/03/05 03:42:43;;;;;;;23.17;20.37;;;;;;;0.56;68.47;92498.91;5084310;28;20235;-83
2022/03/05 03:45:10;;;;;;;23.07;20.03;;;;;;;0.47;68.20;92490.72;5087413;28;20188;-84
2022/03/05 03:47:36;;;;;;;23.03;20.53;;;;;;;0.69;67.36;92491.78;5082782;28;20224;-83
2022/03/05 03:50:05;;;;;;;22.73;19.47;;;;;;;0.87;67.14;92494.25;5088291;28;20260;-83
2022/03/05 03:52:31;;;;;;;23.03;19.27;;;;;;;0.79;67.02;92496.38;5085700;28;20251;-83
2022/03/05 03:54:56;;;;;;;24.40;21.50;;;;;;;0.58;67.64;92497.69;5086304;28;20186;-79
2022/03/05 03:57:22;;;;;;;26.73;20.10;;;;;;;0.65;68.21;92511.22;5085586;28;20236;-82
2022/03/05 03:59:51;;;;;;;26.17;21.07;;;;;;;0.54;68.33;92488.88;5081690;28;20189;-81
2022/03/05 04:02:17;;;;;;;29.13;21.87;;;;;;;0.73;67.90;92510.88;5086178;28;20224;-83
2022/03/05 04:04:42;;;;;;;28.73;21.97;;;;;;;0.61;67.73;92510.06;5086437;28;20181;-81
2022/03/05 04:09:54;;;;;;;26.30;22.80;;;;;;;0.52;69.18;92506.28;5085170;28;20200;-82
2022/03/05 04:12:20;;;;;;;29.93;23.40;;;;;;;0.22;70.58;92500.38;5086848;28;20224;-81
2022/03/05 04:14:45;;;;;;;27.30;22.57;;;;;;;0.28;70.02;92476.41;5104249;28;20200;-88
2022/03/05 04:17:11;;;;;;;27.03;23.17;;;;;;;0.50;69.21;92510.06;5090179;28;20331;-86
2022/03/05 04:19:36;;;;;;;27.00;21.53;;;;;;;0.29;68.80;92513.91;5086428;28;20212;-88
2022/03/05 04:22:02;;;;;;;28.77;21.73;;;;;;;0.41;68.58;92519.84;5090508;28;20264;-87
2022/03/05 04:24:28;;;;;;;26.53;21.57;;;;;;;0.29;68.32;92511.34;5090000;28;20227;-83
2022/03/05 04:26:53;;;;;;;29.70;22.47;;;;;;;0.32;67.25;92512.69;5087002;28;20184;-87
2022/03/05 04:29:19;;;;;;;28.67;21.90;;;;;;;0.20;67.37;92520.38;5089557;28;20199;-87
2022/03/05 04:31:44;;;;;;;27.37;21.60;;;;;;;0.03;67.48;92521.97;5089476;28;20191;-87
2022/03/05 04:34:10;;;;;;;28.90;23.33;;;;;;;-0.16;68.03;92508.38;5090648;28;20220;-87
2022/03/05 04:36:35;;;;;;;33.57;23.40;;;;;;;-0.16;67.92;92497.34;5090540;28;20200;-87
2022/03/05 04:39:01;;;;;;;32.93;26.80;;;;;;;0.05;68.08;92519.97;5088403;28;20307;-86
2022/03/05 04:41:26;;;;;;;37.17;25.83;;;;;;;-0.16;69.50;92510.19;5092872;28;20185;-87
2022/03/05 04:43:51;;;;;;;30.17;23.27;;;;;;;0.11;69.10;92526.78;5104996;28;20251;-87
2022/03/05 04:46:17;;;;;;;28.03;22.07;;;;;;;-0.02;68.31;92498.75;5090505;28;20168;-86
2022/03/05 04:48:42;;;;;;;28.07;22.27;;;;;;;-0.01;68.06;92501.09;5089188;28;20224;-87
2022/03/05 04:51:08;;;;;;;23.70;21.20;;;;;;;-0.07;67.93;92488.34;5089584;28;20192;-86
2022/03/05 04:53:33;;;;;;;23.67;21.23;;;;;;;-0.18;68.56;92505.25;5091001;28;20232;-86
2022/03/05 04:55:58;;;;;;;23.73;20.83;;;;;;;-0.04;68.66;92511.78;5090345;28;20197;-86
2022/03/05 04:58:24;;;;;;;25.20;21.37;;;;;;;-0.15;69.14;92527.91;5089513;28;20212;-86
2022/03/05 05:00:51;;;;;;;26.87;21.17;;;;;;;0.11;68.34;92523.44;5089308;28;20208;-84
2022/03/05 05:03:16;;;;;;;28.90;20.97;;;;;;;-0.10;69.48;92501.63;5087998;28;20228;-87
2022/03/05 05:05:41;;;;;;;25.40;22.20;;;;;;;0.19;68.86;92530.84;5090880;28;20226;-87
2022/03/05 05:08:07;;;;;;;25.47;21.73;;;;;;;-0.04;68.42;92504.09;5088340;28;20255;-86
2022/03/05 05:10:33;;;;;;;26.23;21.53;;;;;;;0.38;67.72;92514.38;5089607;28;20188;-86
2022/03/05 05:12:59;;;;;;;29.00;21.03;;;;;;;0.22;68.27;92504.75;5087215;28;20237;-87
2022/03/05 05:15:24;;;;;;;22.43;20.13;;;;;;;0.38;69.21;92530.56;5106865;28;20940;-80
2022/03/05 05:17:50;;;;;;;24.57;21.67;;;;;;;0.45;68.09;92520.22;5105581;28;20227;-82
2022/03/05 05:20:15;;;;;;;24.50;20.83;;;;;;;0.43;68.80;92522.22;5088632;28;20192;-81
2022/03/05 05:22:41;;;;;;;25.17;20.90;;;;;;;0.59;68.51;92532.63;5105877;28;20224;-82
2022/03/05 05:25:07;;;;;;;27.40;22.83;;;;;;;0.80;67.27;92550.09;5089676;28;20188;-82
2022/03/05 05:27:40;;;;;;;25.13;20.57;;;;;;;0.78;66.77;92554.66;5088169;28;20224;-82
2022/03/05 05:30:07;;;;;;;28.87;21.23;;;;;;;0.74;68.40;92555.31;5087515;28;20192;-82
2022/03/05 05:32:33;;;;;;;25.77;21.27;;;;;;;0.83;68.54;92557.34;5089879;28;20228;-82
2022/03/05 05:34:58;;;;;;;27.67;20.63;;;;;;;0.84;68.84;92558.91;5106106;28;20211;-82
2022/03/05 05:37:24;;;;;;;27.93;21.03;;;;;;;1.02;67.95;92564.00;5088165;28;20805;-81
2022/03/05 05:39:49;;;;;;;24.33;21.50;;;;;;;1.02;67.57;92558.84;5089122;28;20257;-82
2022/03/05 05:42:15;;;;;;;24.33;20.10;;;;;;;1.03;68.09;92572.47;5089578;28;20243;-82
2022/03/05 05:44:41;;;;;;;26.87;21.23;;;;;;;1.23;67.80;92571.13;5086707;28;20268;-82
2022/03/05 05:47:07;;;;;;;26.57;22.63;;;;;;;1.06;67.28;92552.25;5089924;28;20223;-81
2022/03/05 05:49:33;;;;;;;25.87;22.30;;;;;;;1.28;67.87;92578.97;5089885;28;20173;-81
2022/03/05 05:52:00;;;;;;;25.90;22.13;;;;;;;1.10;67.99;92552.59;5085780;28;20250;-82
2022/03/05 05:54:26;;;;;;;28.43;22.67;;;;;;;1.33;66.89;92550.00;5090424;28;20216;-82
2022/03/05 05:56:51;;;;;;;41.60;28.50;;;;;;;1.50;64.09;92577.41;5090232;28;20279;-82
2022/03/05 05:59:17;;;;;;;35.77;26.53;;;;;;;1.39;63.54;92544.75;5088317;28;20208;-82
2022/03/05 06:01:42;;;;;;;34.30;25.53;;;;;;;1.72;63.58;92569.09;5089863;28;20184;-82
2022/03/05 06:04:07;;;;;;;35.40;25.03;;;;;;;1.47;64.91;92566.78;5086314;28;20248;-82
2022/03/05 06:06:33;;;;;;;35.03;25.20;;;;;;;1.83;64.39;92581.97;5090238;28;20214;-82
2022/03/05 06:08:58;;;;;;;33.90;25.67;;;;;;;2.24;63.05;92602.34;5087173;28;20221;-82
2022/03/05 06:11:24;;;;;;;35.40;25.80;;;;;;;2.15;62.96;92590.06;5089297;28;20197;-81
2022/03/05 06:13:50;;;;;;;35.67;27.00;;;;;;;2.04;63.06;92589.06;5079820;28;20821;-82
2022/03/05 06:16:15;;;;;;;34.77;26.77;;;;;;;2.06;62.15;92609.44;5088488;28;20189;-81
2022/03/05 06:18:41;;;;;;;39.43;28.30;;;;;;;2.20;61.14;92613.34;5085566;28;20213;-81
2022/03/05 06:21:06;;;;;;;40.07;28.03;;;;;;;2.04;59.60;92608.91;5088257;28;20177;-80
2022/03/05 06:23:32;;;;;;;39.27;28.60;;;;;;;2.18;60.92;92621.28;5086342;28;21137;-80
2022/03/05 06:25:58;;;;;;;47.00;31.70;;;;;;;2.05;60.01;92600.16;5088408;28;20180;-80
2022/03/05 06:28:23;;;;;;;45.53;32.10;;;;;;;1.80;59.88;92617.66;5087683;28;20239;-80
2022/03/05 06:30:49;;;;;;;48.13;33.13;;;;;;;1.99;58.69;92616.53;5089603;28;20189;-78
2022/03/05 06:33:14;;;;;;;36.70;29.40;;;;;;;1.96;58.42;92607.44;5087081;28;20212;-85
2022/03/05 06:35:40;;;;;;;38.10;29.20;;;;;;;1.99;57.97;92598.50;5086547;28;20216;-85
2022/03/05 06:38:05;;;;;;;42.37;28.43;;;;;;;2.19;57.29;92622.06;5089564;28;20224;-78
2022/03/05 06:40:31;;;;;;;48.50;29.83;;;;;;;2.10;58.32;92613.16;5085929;28;20199;-79
2022/03/05 06:42:56;;;;;;;45.87;31.83;;;;;;;2.05;60.04;92595.81;5088514;28;20610;-78
2022/03/05 06:45:22;;;;;;;46.63;32.50;;;;;;;2.03;61.20;92609.91;5086255;28;20169;-85
2022/03/05 06:47:48;;;;;;;48.67;31.03;;;;;;;1.94;61.26;92608.69;5087073;28;20217;-84
2022/03/05 06:50:13;;;;;;;53.53;32.37;;;;;;;1.79;61.37;92565.41;5089381;28;20191;-84
2022/03/05 06:52:39;;;;;;;48.50;29.57;;;;;;;2.40;59.93;92619.66;5085085;28;20229;-84
2022/03/05 06:55:06;;;;;;;43.77;28.70;;;;;;;2.52;57.03;92606.75;5088294;28;20200;-83
2022/03/05 06:57:32;;;;;;;46.07;29.50;;;;;;;2.62;57.38;92622.38;5084404;28;20229;-79
2022/03/05 06:59:57;;;;;;;42.07;30.33;;;;;;;2.42;57.56;92632.31;5087069;28;20201;-75
2022/03/05 07:02:23;;;;;;;51.93;31.97;;;;;;;2.15;58.94;92608.09;5087109;28;20284;-83
2022/03/05 07:04:49;;;;;;;46.83;31.17;;;;;;;2.47;58.78;92614.38;5082091;28;20195;-79
2022/03/05 07:07:16;;;;;;;49.97;32.17;;;;;;;2.47;58.89;92612.59;5087331;28;20331;-82
2022/03/05 07:09:41;;;;;;;55.13;33.73;;;;;;;2.31;60.19;92617.66;5086194;28;20192;-82
2022/03/05 07:12:07;;;;;;;48.93;32.07;;;;;;;2.40;58.71;92618.88;5086343;28;20263;-85
2022/03/05 07:14:32;;;;;;;45.97;31.60;;;;;;;2.63;56.34;92587.91;5087034;28;20213;-79
2022/03/05 07:16:58;;;;;;;45.37;32.87;;;;;;;2.48;57.42;92618.50;5085792;28;20181;-79
2022/03/05 07:19:24;;;;;;;45.20;30.97;;;;;;;2.21;57.95;92589.16;5084630;28;20192;-79
2022/03/05 07:21:49;;;;;;;45.73;31.03;;;;;;;2.53;57.06;92616.03;5086279;28;20223;-78
2022/03/05 07:24:15;;;;;;;50.00;32.03;;;;;;;2.09;58.52;92580.66;5086862;28;20227;-76
2022/03/05 07:26:41;;;;;;;42.80;30.10;;;;;;;2.38;57.31;92579.69;5084831;28;20207;-77
2022/03/05 07:29:07;;;;;;;43.83;31.23;;;;;;;2.94;55.22;92589.97;5083911;28;20770;-78
2022/03/05 07:31:32;;;;;;;49.37;31.10;;;;;;;2.97;55.94;92595.44;5102837;28;20280;-78
2022/03/05 07:33:58;;;;;;;46.47;32.13;;;;;;;3.12;55.45;92598.28;5083987;28;20228;-79
2022/03/05 07:36:24;;;;;;;46.23;31.30;;;;;;;3.07;54.25;92589.66;5085908;28;20200;-81
2022/03/05 07:38:51;;;;;;;43.80;29.27;;;;;;;3.20;54.42;92599.69;5083915;28;20287;-81
2022/03/05 07:41:18;;;;;;;43.70;32.17;;;;;;;2.92;54.19;92563.66;5086458;28;20193;-85
2022/03/05 07:43:44;;;;;;;41.80;31.97;;;;;;;2.98;53.59;92575.59;5085267;28;20284;-84
2022/03/05 07:46:09;;;;;;;46.77;32.03;;;;;;;2.67;54.62;92612.97;5085131;28;20212;-83
2022/03/05 07:48:35;;;;;;;45.27;29.63;;;;;;;2.42;55.24;92578.22;5084669;28;20254;-79
2022/03/05 07:51:02;;;;;;;44.87;31.77;;;;;;;2.84;54.45;92600.09;5084524;28;20188;-81
2022/03/05 07:53:28;;;;;;;48.10;30.17;;;;;;;3.39;53.45;92605.38;5085946;28;20236;-81
2022/03/05 07:55:57;;;;;;;49.00;31.53;;;;;;;3.38;52.69;92604.59;5085454;28;20189;-81
2022/03/05 07:58:23;;;;;;;47.93;32.03;;;;;;;3.45;52.57;92602.66;5084016;28;20223;-80
2022/03/05 08:00:48;;;;;;;42.13;31.00;;;;;;;3.66;51.78;92585.69;5100672;28;20184;-80
2022/03/05 08:03:14;;;;;;;38.97;29.57;;;;;;;3.81;51.84;92583.28;5085778;28;20223;-80
2022/03/05 08:05:41;;;;;;;43.17;30.27;;;;;;;3.81;50.64;92601.38;5086585;28;20189;-78
2022/03/05 08:08:06;;;;;;;44.47;30.73;;;;;;;3.46;50.76;92578.41;5082930;28;20227;-78
2022/03/05 08:10:32;;;;;;;43.40;30.40;;;;;;;3.51;51.21;92568.16;5086784;28;20193;-79
2022/03/05 08:12:57;;;;;;;39.57;28.33;;;;;;;3.83;50.11;92613.00;5085922;28;20233;-77
2022/03/05 08:15:23;;;;;;;35.00;28.23;;;;;;;3.48;51.01;92615.09;5087882;28;20311;-78
2022/03/05 08:18:00;;;;;;;39.00;27.70;;;;;;;3.62;51.76;92615.53;5084334;28;20217;-78
2022/03/05 08:20:28;;;;;;;45.30;30.47;;;;;;;4.01;49.91;92617.13;5085229;28;20204;-80
2022/03/05 08:22:54;;;;;;;53.43;31.27;;;;;;;3.66;50.88;92572.78;5088631;28;20295;-77
2022/03/05 08:25:20;;;;;;;48.07;31.00;;;;;;;4.05;51.06;92606.09;5087301;28;20193;-76
2022/03/05 08:27:46;;;;;;;48.50;29.93;;;;;;;4.24;50.85;92617.69;5088327;28;20228;-76
2022/03/05 08:30:12;;;;;;;45.00;30.80;;;;;;;4.19;50.71;92615.03;5085319;28;20185;-76
2022/03/05 08:32:41;;;;;;;36.70;27.03;;;;;;;3.98;50.44;92613.22;5087492;28;20296;-78
2022/03/05 08:35:08;;;;;;;45.23;30.80;;;;;;;3.81;51.81;92581.50;5085795;28;20185;-75
2022/03/05 08:37:34;;;;;;;39.33;29.60;;;;;;;4.16;52.13;92615.53;5086532;28;20242;-74
2022/03/05 08:39:59;;;;;;;42.67;29.70;;;;;;;4.19;53.21;92614.25;5086192;28;20188;-75
2022/03/05 08:42:25;;;;;;;46.63;33.53;;;;;;;4.29;53.83;92614.38;5086400;28;20243;-79
2022/03/05 08:44:50;;;;;;;45.60;32.07;;;;;;;4.27;52.84;92619.81;5088015;28;20267;-79
2022/03/05 08:47:16;;;;;;;45.00;32.17;;;;;;;3.89;54.39;92577.72;5084411;28;20225;-78
2022/03/05 08:49:42;;;;;;;43.10;32.40;;;;;;;4.63;54.39;92624.38;5083994;28;20212;-75
2022/03/05 08:52:08;;;;;;;41.00;30.20;;;;;;;4.34;53.98;92617.81;5084119;28;20213;-82
2022/03/05 08:54:34;;;;;;;49.07;31.90;;;;;;;4.58;53.40;92615.75;5083731;28;20231;-84
2022/03/05 08:56:59;;;;;;;44.37;33.10;;;;;;;4.77;53.52;92622.97;5084954;28;20192;-77
2022/03/05 08:59:25;;;;;;;46.47;32.00;;;;;;;4.55;53.38;92611.88;5086859;28;20206;-79
2022/03/05 09:01:50;;;;;;;47.17;32.83;;;;;;;4.46;54.81;92623.66;5089212;28;20192;-76
2022/03/05 09:04:16;;;;;;;45.03;32.50;;;;;;;4.79;54.51;92609.81;5087426;28;20236;-75
2022/03/05 09:06:41;;;;;;;44.97;29.80;;;;;;;4.52;54.18;92616.72;5089659;28;20272;-77
2022/03/05 09:09:07;;;;;;;45.90;32.87;;;;;;;4.38;55.49;92625.88;5089333;28;20225;-75
2022/03/05 09:11:37;;;;;;;42.73;32.07;;;;;;;4.62;55.80;92620.19;5089845;28;20269;-75
2022/03/05 09:14:03;;;;;;;46.13;31.47;;;;;;;5.07;55.86;92626.88;5104066;28;20220;-74
2022/03/05 09:16:29;;;;;;;40.30;30.67;;;;;;;5.23;55.14;92624.19;5087008;28;20197;-75
2022/03/05 09:18:55;;;;;;;37.10;27.67;;;;;;;5.47;54.62;92601.34;5090629;28;20227;-76
2022/03/05 09:21:21;;;;;;;34.43;27.37;;;;;;;5.59;54.67;92599.34;5087715;28;20196;-74
2022/03/05 09:23:47;;;;;;;37.83;25.23;;;;;;;5.89;54.12;92589.25;5089371;28;20284;-76
2022/03/05 09:26:15;;;;;;;31.87;27.37;;;;;;;5.95;53.98;92601.19;5086229;28;20209;-75
2022/03/05 09:28:42;;;;;;;39.57;27.00;;;;;;;6.09;53.70;92630.81;5088228;28;20288;-77
2022/03/05 09:31:07;;;;;;;31.20;25.63;;;;;;;5.50;54.69;92582.72;5088196;28;20713;-76
2022/03/05 09:33:32;;;;;;;32.93;25.87;;;;;;;5.16;57.65;92610.69;5086969;28;20216;-76
2022/03/05 09:35:58;;;;;;;32.80;26.47;;;;;;;5.66;57.28;92610.28;5091247;28;20188;-74
2022/03/05 09:38:23;;;;;;;37.53;27.43;;;;;;;6.07;56.31;92612.16;5087729;28;20247;-77
2022/03/05 09:40:49;;;;;;;28.10;24.13;;;;;;;6.15;55.45;92619.44;5087521;28;20193;-77
2022/03/05 09:43:20;;;;;;;25.97;22.43;;;;;;;6.24;55.76;92612.78;5087529;28;20225;-78
2022/03/05 09:45:46;;;;;;;26.03;23.23;;;;;;;5.89;56.43;92609.97;5087282;28;20188;-79
2022/03/05 09:48:16;;;;;;;27.57;24.57;;;;;;;6.18;55.34;92613.75;5088553;28;20213;-81
2022/03/05 09:50:42;;;;;;;34.87;28.23;;;;;;;6.15;56.18;92619.44;5088197;28;20231;-83
2022/03/05 09:53:08;;;;;;;32.03;27.07;;;;;;;5.99;55.25;92577.13;5088382;28;20220;-83
2022/03/05 09:55:34;;;;;;;35.07;27.67;;;;;;;6.01;56.01;92616.50;5085363;28;20227;-77
2022/03/05 09:57:59;;;;;;;30.53;25.67;;;;;;;6.04;56.30;92612.63;5088260;28;20225;-78
2022/03/05 10:00:26;;;;;;;32.17;26.90;;;;;;;5.60;56.45;92546.56;5084703;28;20234;-86
2022/03/05 10:02:51;;;;;;;32.03;25.30;;;;;;;5.70;57.38;92580.28;5085157;28;20247;-74
2022/03/05 10:05:24;;;;;;;35.53;26.00;;;;;;;6.15;57.39;92619.44;5089598;28;20210;-75
2022/03/05 10:08:15;;;;;;;32.60;25.93;;;;;;;5.88;58.32;92603.22;5083542;28;20239;-76
2022/03/05 10:10:56;;;;;;;28.80;25.67;;;;;;;5.76;59.11;92600.03;5089026;28;20212;-78
2022/03/05 10:13:25;;;;;;;26.43;23.37;;;;;;;5.71;59.34;92615.53;5087524;28;20254;-75
2022/03/05 10:15:56;;;;;;;31.60;24.20;;;;;;;5.67;59.46;92601.50;5100139;28;20203;-77
2022/03/05 10:18:36;;;;;;;33.07;26.10;;;;;;;5.45;60.13;92598.25;5086107;28;20224;-75
2022/03/05 10:21:05;;;;;;;32.27;25.57;;;;;;;5.25;60.12;92587.69;5082962;28;20216;-76
2022/03/05 10:23:47;;;;;;;32.50;24.70;;;;;;;5.62;59.60;92622.19;5088410;28;20327;-78
2022/03/05 10:26:15;;;;;;;39.27;28.83;;;;;;;5.50;60.24;92600.84;5085325;28;20204;-75
2022/03/05 10:28:40;;;;;;;33.07;27.33;;;;;;;5.63;60.13;92615.97;5084564;28;20251;-76
2022/03/05 10:31:09;;;;;;;31.50;25.97;;;;;;;5.39;61.08;92618.13;5086796;28;20181;-79
2022/03/05 10:33:43;;;;;;;29.17;25.13;;;;;;;5.07;61.65;92582.91;5079570;28;20229;-79
2022/03/05 10:36:18;;;;;;;28.00;23.73;;;;;;;5.08;62.17;92618.09;5088838;28;20933;-76
2022/03/05 10:38:44;;;;;;;32.13;24.90;;;;;;;4.86;63.17;92608.56;5084889;28;20300;-77
2022/03/05 10:41:10;;;;;;;29.63;24.87;;;;;;;4.72;63.88;92593.69;5086506;28;20267;-77
2022/03/05 10:43:36;;;;;;;35.20;25.13;;;;;;;4.46;63.89;92571.97;5088470;28;20360;-78
2022/03/05 10:46:02;;;;;;;33.13;26.77;;;;;;;4.48;65.37;92603.50;5103217;28;20189;-81
2022/03/05 10:48:29;;;;;;;38.07;25.67;;;;;;;4.32;65.21;92583.69;5085419;28;20227;-80
2022/03/05 10:51:04;;;;;;;36.00;26.77;;;;;;;4.36;66.14;92607.22;5084563;28;20217;-78
2022/03/05 10:53:47;;;;;;;31.57;26.93;;;;;;;4.31;66.34;92607.94;5087463;28;20228;-77
2022/03/05 10:56:29;;;;;;;30.43;26.23;;;;;;;4.42;66.58;92599.31;5084870;28;20189;-76
2022/03/05 10:58:59;;;;;;;33.27;27.30;;;;;;;4.47;67.35;92594.19;5079230;28;20217;-78
2022/03/05 11:01:25;;;;;;;37.00;27.97;;;;;;;4.25;68.05;92557.25;5086199;28;20252;-79
2022/03/05 11:03:53;;;;;;;37.00;27.67;;;;;;;4.59;67.84;92594.84;5085315;28;20236;-79
2022/03/05 11:06:20;;;;;;;33.97;26.47;;;;;;;4.78;66.52;92592.69;5081714;28;20170;-78
2022/03/05 11:08:46;;;;;;;32.57;25.20;;;;;;;4.36;66.61;92535.66;5083340;28;20240;-78
2022/03/05 11:11:14;;;;;;;36.73;26.00;;;;;;;4.37;67.58;92560.47;5085856;28;20192;-81
2022/03/05 11:13:40;;;;;;;33.53;27.50;;;;;;;4.21;67.65;92529.56;5088777;28;20239;-79
2022/03/05 11:16:06;;;;;;;31.07;26.20;;;;;;;4.62;67.55;92571.09;5086994;28;20177;-78
2022/03/05 11:18:32;;;;;;;32.87;26.10;;;;;;;4.58;68.19;92567.44;5086645;28;20232;-79
2022/03/05 11:21:00;;;;;;;31.80;27.90;;;;;;;4.77;67.35;92555.75;5084632;28;20215;-79
2022/03/05 11:23:25;;;;;;;30.17;26.93;;;;;;;5.11;66.17;92564.06;5087364;28;20462;-79